createdAt,value
2023-01-08T00:00:06.964Z,100273.88
2023-01-08T00:01:14.509Z,100268.50
2023-01-08T00:02:17.342Z,100272.66
2023-01-08T00:03:19.719Z,100261.81
2023-01-08T00:04:22.148Z,100273.41
2023-01-08T00:05:24.363Z,100268.03
2023-01-08T00:06:26.901Z,100261.81
2023-01-08T00:07:29.293Z,100252.19
2023-01-08T00:08:31.860Z,100257.47
2023-01-08T00:09:34.013Z,100257.47
2023-01-08T00:10:39.675Z,100251.06
2023-01-08T00:11:42.999Z,100251.25
2023-01-08T00:12:45.472Z,100259.41
2023-01-08T00:13:47.671Z,100262.56
2023-01-08T00:14:49.886Z,100257.19
2023-01-08T00:15:52.885Z,100264.97
2023-01-08T00:16:55.144Z,100255.38
2023-01-08T00:17:57.965Z,100256.56
2023-01-08T00:19:00.151Z,100252.91
2023-01-08T00:20:02.331Z,100251.31
2023-01-08T00:21:05.711Z,100247.94
2023-01-08T00:22:07.903Z,100251.25
2023-01-08T00:23:17.272Z,100251.34
2023-01-08T00:24:20.746Z,100244.38
2023-01-08T00:25:22.950Z,100250.75
2023-01-08T00:26:25.182Z,100241.94
2023-01-08T00:27:28.081Z,100250.75
2023-01-08T00:28:30.374Z,100250.00
2023-01-08T00:29:32.777Z,100250.28
2023-01-08T00:30:35.676Z,100250.25
2023-01-08T00:31:37.838Z,100242.31
2023-01-08T00:32:40.179Z,100236.81
2023-01-08T00:33:42.623Z,100245.75
2023-01-08T00:34:45.038Z,100237.34
2023-01-08T00:35:47.492Z,100239.84
2023-01-08T00:36:49.655Z,100245.13
2023-01-08T00:37:52.423Z,100246.78
2023-01-08T00:38:54.572Z,100243.41
2023-01-08T00:39:56.766Z,100244.41
2023-01-08T00:40:59.311Z,100243.59
2023-01-08T00:42:01.512Z,100249.63
2023-01-08T00:43:04.406Z,100248.63
2023-01-08T00:44:06.788Z,100244.47
2023-01-08T00:45:11.028Z,100237.19
2023-01-08T00:46:13.430Z,100232.88
2023-01-08T00:47:15.584Z,100231.38
2023-01-08T00:48:18.175Z,100225.97
2023-01-08T00:49:20.322Z,100225.91
2023-01-08T00:50:23.659Z,100212.63
2023-01-08T00:51:26.350Z,100225.19
2023-01-08T00:52:29.073Z,100222.69
2023-01-08T00:53:31.511Z,100218.38
2023-01-08T00:54:33.691Z,100216.59
2023-01-08T00:55:36.045Z,100220.03
2023-01-08T00:56:38.406Z,100219.94
2023-01-08T00:57:41.687Z,100213.78
2023-01-08T00:58:44.025Z,100212.00
2023-01-08T00:59:46.239Z,100212.13
2023-01-08T01:00:48.615Z,100207.81
2023-01-08T01:01:52.817Z,100215.00
2023-01-08T01:02:55.136Z,100215.91
2023-01-08T01:03:57.509Z,100207.97
2023-01-08T01:04:59.687Z,100208.97
2023-01-08T01:06:03.273Z,100208.06
2023-01-08T01:07:07.226Z,100209.69
2023-01-08T01:08:09.746Z,100204.38
2023-01-08T01:09:12.017Z,100201.75
2023-01-08T01:10:16.263Z,100208.34
2023-01-08T01:11:24.486Z,100208.19
2023-01-08T01:12:26.936Z,100207.38
2023-01-08T01:13:29.263Z,100199.31
2023-01-08T01:14:31.520Z,100202.03
2023-01-08T01:15:33.948Z,100195.19
2023-01-08T01:16:36.514Z,100197.75
2023-01-08T01:17:40.747Z,100192.38
2023-01-08T01:18:43.256Z,100190.63
2023-01-08T01:19:45.596Z,100188.94
2023-01-08T01:20:47.968Z,100191.66
2023-01-08T01:21:50.129Z,100183.66
2023-01-08T01:22:52.503Z,100190.06
2023-01-08T01:23:57.158Z,100196.28
2023-01-08T01:24:59.515Z,100186.63
2023-01-08T01:26:01.644Z,100185.59
2023-01-08T01:27:04.180Z,100186.63
2023-01-08T01:28:06.325Z,100185.47
2023-01-08T01:29:08.886Z,100184.44
2023-01-08T01:30:11.406Z,100177.22
2023-01-08T01:31:13.765Z,100175.44
2023-01-08T01:32:16.184Z,100175.25
2023-01-08T01:33:18.353Z,100178.94
2023-01-08T01:34:20.710Z,100177.34
2023-01-08T01:35:22.849Z,100181.44
2023-01-08T01:36:25.814Z,100177.97
2023-01-08T01:37:28.177Z,100171.03
2023-01-08T01:38:30.841Z,100175.47
2023-01-08T01:39:33.041Z,100179.06
2023-01-08T01:40:35.217Z,100174.63
2023-01-08T01:41:40.031Z,100171.00
2023-01-08T01:42:43.786Z,100156.88
2023-01-08T01:43:45.962Z,100161.31
2023-01-08T01:44:48.346Z,100156.78
2023-01-08T01:45:50.537Z,100150.50
2023-01-08T01:46:52.781Z,100155.88
2023-01-08T01:48:02.298Z,100151.41
2023-01-08T01:49:25.043Z,100148.06
2023-01-08T01:50:51.908Z,100147.94
2023-01-08T01:52:02.280Z,100141.78
2023-01-08T01:53:19.304Z,100147.03
2023-01-08T01:54:22.976Z,100148.03
2023-01-08T01:55:26.957Z,100144.53
2023-01-08T01:56:30.989Z,100153.38
2023-01-08T01:57:33.541Z,100146.34
2023-01-08T01:58:36.176Z,100151.69
2023-01-08T01:59:38.731Z,100147.44
2023-01-08T02:00:41.830Z,100149.31
2023-01-08T02:01:44.232Z,100138.41
2023-01-08T02:02:46.813Z,100154.31
2023-01-08T02:03:49.012Z,100148.25
2023-01-08T02:04:51.741Z,100147.28
2023-01-08T02:06:21.443Z,100143.69
2023-01-08T02:07:35.803Z,100142.84
2023-01-08T02:08:56.094Z,100142.13
2023-01-08T02:10:21.584Z,100137.66
2023-01-08T02:11:40.307Z,100141.25
2023-01-08T02:12:47.814Z,100127.06
2023-01-08T02:14:06.314Z,100128.81
2023-01-08T02:15:53.140Z,100126.91
2023-01-08T02:17:09.589Z,100123.47
2023-01-08T02:18:27.418Z,100126.13
2023-01-08T02:19:57.576Z,100124.19
2023-01-08T02:21:03.703Z,100132.13
2023-01-08T02:22:15.411Z,100130.06
2023-01-08T02:23:27.761Z,100125.63
2023-01-08T02:24:46.714Z,100121.31
2023-01-08T02:26:00.983Z,100125.84
2023-01-08T02:27:06.806Z,100114.31
2023-01-08T02:28:13.468Z,100111.78
2023-01-08T02:29:23.913Z,100105.69
2023-01-08T02:30:26.902Z,100111.91
2023-01-08T02:31:30.649Z,100104.13
2023-01-08T02:32:36.227Z,100100.63
2023-01-08T02:33:38.625Z,100099.28
2023-01-08T02:34:40.799Z,100093.97
2023-01-08T02:35:52.100Z,100098.44
2023-01-08T02:36:56.320Z,100095.63
2023-01-08T02:37:58.581Z,100090.13
2023-01-08T02:39:15.284Z,100091.00
2023-01-08T02:40:33.685Z,100096.13
2023-01-08T02:42:02.085Z,100088.16
2023-01-08T02:43:12.338Z,100090.13
2023-01-08T02:44:21.830Z,100091.09
2023-01-08T02:45:41.148Z,100087.63
2023-01-08T02:46:44.679Z,100085.78
2023-01-08T02:48:07.601Z,100085.66
2023-01-08T02:49:13.916Z,100088.03
2023-01-08T02:50:25.976Z,100079.19
2023-01-08T02:51:34.040Z,100078.09
2023-01-08T02:52:45.570Z,100074.81
2023-01-08T02:53:51.403Z,100077.34
2023-01-08T02:54:55.627Z,100068.50
2023-01-08T02:56:05.494Z,100072.06
2023-01-08T02:57:13.866Z,100064.97
2023-01-08T02:58:17.086Z,100066.84
2023-01-08T02:59:20.971Z,100065.25
2023-01-08T03:00:23.791Z,100060.91
2023-01-08T03:01:27.991Z,100064.75
2023-01-08T03:02:34.698Z,100065.63
2023-01-08T03:03:41.663Z,100062.03
2023-01-08T03:04:52.966Z,100060.50
2023-01-08T03:06:02.116Z,100069.22
2023-01-08T03:07:04.288Z,100067.44
2023-01-08T03:08:06.792Z,100071.91
2023-01-08T03:09:10.256Z,100072.75
2023-01-08T03:10:12.737Z,100080.56
2023-01-08T03:11:18.241Z,100075.09
2023-01-08T03:12:27.035Z,100080.34
2023-01-08T03:14:06.253Z,100072.50
2023-01-08T03:15:13.219Z,100071.72
2023-01-08T03:16:21.636Z,100074.41
2023-01-08T03:17:30.854Z,100071.97
2023-01-08T03:18:38.088Z,100070.91
2023-01-08T03:19:54.391Z,100077.06
2023-01-08T03:20:56.593Z,100068.16
2023-01-08T03:22:02.442Z,100071.72
2023-01-08T03:23:08.363Z,100068.06
2023-01-08T03:24:13.771Z,100064.56
2023-01-08T03:25:20.337Z,100063.53
2023-01-08T03:26:27.045Z,100059.38
2023-01-08T03:27:33.697Z,100059.44
2023-01-08T03:28:46.168Z,100057.63
2023-01-08T03:29:53.640Z,100046.88
2023-01-08T03:30:57.573Z,100056.44
2023-01-08T03:32:07.418Z,100051.91
2023-01-08T03:33:12.666Z,100055.81
2023-01-08T03:34:16.353Z,100051.31
2023-01-08T03:35:22.976Z,100043.28
2023-01-08T03:36:29.169Z,100050.97
2023-01-08T03:37:39.607Z,100048.25
2023-01-08T03:38:47.404Z,100047.44
2023-01-08T03:39:59.349Z,100043.22
2023-01-08T03:41:07.237Z,100049.41
2023-01-08T03:42:13.366Z,100045.31
2023-01-08T03:43:15.792Z,100038.91
2023-01-08T03:44:18.154Z,100033.50
2023-01-08T03:45:23.134Z,100028.19
2023-01-08T03:46:31.637Z,100024.59
2023-01-08T03:47:43.093Z,100031.72
2023-01-08T03:48:46.416Z,100026.22
2023-01-08T03:49:50.456Z,100025.41
2023-01-08T03:50:53.247Z,100020.72
2023-01-08T03:51:55.470Z,100024.25
2023-01-08T03:53:00.663Z,100024.59
2023-01-08T03:54:03.382Z,100025.41
2023-01-08T03:55:06.200Z,100032.69
2023-01-08T03:56:08.564Z,100029.03
2023-01-08T03:57:10.815Z,100044.81
2023-01-08T03:58:13.496Z,100036.59
2023-01-08T03:59:16.686Z,100045.47
2023-01-08T04:00:19.355Z,100040.97
2023-01-08T04:01:21.628Z,100041.13
2023-01-08T04:02:24.000Z,100040.03
2023-01-08T04:03:26.556Z,100042.50
2023-01-08T04:04:28.894Z,100040.94
2023-01-08T04:05:31.277Z,100040.91
2023-01-08T04:06:33.526Z,100043.69
2023-01-08T04:07:35.741Z,100040.59
2023-01-08T04:08:38.101Z,100031.69
2023-01-08T04:09:40.268Z,100038.75
2023-01-08T04:10:42.612Z,100036.03
2023-01-08T04:11:44.788Z,100038.59
2023-01-08T04:12:46.937Z,100043.03
2023-01-08T04:13:49.285Z,100034.13
2023-01-08T04:14:51.700Z,100038.69
2023-01-08T04:15:54.106Z,100030.72
2023-01-08T04:16:56.531Z,100033.13
2023-01-08T04:17:58.712Z,100032.13
2023-01-08T04:19:00.904Z,100026.69
2023-01-08T04:20:03.503Z,100018.84
2023-01-08T04:21:06.068Z,100018.66
2023-01-08T04:22:11.082Z,100018.72
2023-01-08T04:23:14.074Z,100013.22
2023-01-08T04:24:16.259Z,100020.19
2023-01-08T04:25:19.340Z,100012.06
2023-01-08T04:26:21.680Z,100015.75
2023-01-08T04:27:23.846Z,100019.19
2023-01-08T04:28:26.253Z,100019.88
2023-01-08T04:29:28.556Z,100013.13
2023-01-08T04:30:31.172Z,100012.25
2023-01-08T04:31:33.527Z,100013.78
2023-01-08T04:32:35.685Z,100009.97
2023-01-08T04:33:38.145Z,100005.47
2023-01-08T04:34:40.303Z,100001.06
2023-01-08T04:35:42.676Z,99999.34
2023-01-08T04:36:45.022Z,99998.34
2023-01-08T04:37:47.199Z,99985.53
2023-01-08T04:38:49.545Z,99985.50
2023-01-08T04:39:51.762Z,99986.28
2023-01-08T04:40:58.684Z,99984.47
2023-01-08T04:42:01.286Z,99983.03
2023-01-08T04:43:03.458Z,99980.31
2023-01-08T04:44:05.830Z,99987.06
2023-01-08T04:45:08.488Z,99989.50
2023-01-08T04:46:11.004Z,99990.50
2023-01-08T04:47:13.480Z,99989.81
2023-01-08T04:48:15.720Z,99986.06
2023-01-08T04:49:18.133Z,99987.47
2023-01-08T04:50:20.305Z,99981.06
2023-01-08T04:51:23.401Z,99988.69
2023-01-08T04:52:25.620Z,99981.84
2023-01-08T04:53:29.010Z,99988.69
2023-01-08T04:54:31.170Z,99981.50
2023-01-08T04:55:34.333Z,99984.44
2023-01-08T04:56:36.724Z,99974.94
2023-01-08T04:57:38.933Z,99969.75
2023-01-08T04:58:41.091Z,99971.78
2023-01-08T04:59:43.244Z,99968.44
2023-01-08T05:00:45.664Z,99961.47
2023-01-08T05:01:48.698Z,99963.16
2023-01-08T05:02:51.072Z,99966.44
2023-01-08T05:03:59.626Z,99966.69
2023-01-08T05:05:01.783Z,99970.38
2023-01-08T05:06:04.539Z,99977.44
2023-01-08T05:07:08.051Z,99973.97
2023-01-08T05:08:10.219Z,99971.31
2023-01-08T05:09:12.586Z,99972.69
2023-01-08T05:10:14.781Z,99971.75
2023-01-08T05:11:17.168Z,99967.38
2023-01-08T05:12:19.349Z,99968.41
2023-01-08T05:13:21.498Z,99963.81
2023-01-08T05:14:23.913Z,99965.09
2023-01-08T05:15:26.139Z,99968.56
2023-01-08T05:16:28.515Z,99969.56
2023-01-08T05:17:30.873Z,99968.69
2023-01-08T05:18:33.353Z,99967.66
2023-01-08T05:19:37.609Z,99971.88
2023-01-08T05:20:40.440Z,99971.06
2023-01-08T05:21:43.012Z,99969.66
2023-01-08T05:22:45.369Z,99971.31
2023-01-08T05:23:48.147Z,99976.66
2023-01-08T05:24:50.326Z,99979.38
2023-01-08T05:25:52.495Z,99981.88
2023-01-08T05:26:54.841Z,99981.00
2023-01-08T05:27:57.422Z,99986.25
2023-01-08T05:28:59.645Z,99982.41
2023-01-08T05:30:01.814Z,99977.19
2023-01-08T05:31:05.245Z,99974.41
2023-01-08T05:32:15.196Z,99965.72
2023-01-08T05:33:17.375Z,99962.09
2023-01-08T05:34:19.757Z,99965.78
2023-01-08T05:35:21.944Z,99955.34
2023-01-08T05:36:24.272Z,99959.69
2023-01-08T05:37:26.443Z,99957.94
2023-01-08T05:38:28.872Z,99954.44
2023-01-08T05:39:31.184Z,99951.72
2023-01-08T05:40:33.601Z,99956.91
2023-01-08T05:41:35.992Z,99953.44
2023-01-08T05:42:38.255Z,99959.69
2023-01-08T05:43:40.618Z,99961.41
2023-01-08T05:44:42.991Z,99969.47
2023-01-08T05:45:45.156Z,99963.16
2023-01-08T05:46:47.513Z,99954.19
2023-01-08T05:47:49.652Z,99958.22
2023-01-08T05:48:51.813Z,99955.56
2023-01-08T05:49:54.337Z,99954.41
2023-01-08T05:50:56.672Z,99954.16
2023-01-08T05:51:58.851Z,99958.66
2023-01-08T05:53:01.134Z,99957.84
2023-01-08T05:54:03.419Z,99958.69
2023-01-08T05:55:06.449Z,99963.13
2023-01-08T05:56:11.644Z,99959.78
2023-01-08T05:57:13.997Z,99961.53
2023-01-08T05:58:19.117Z,99959.78
2023-01-08T05:59:21.340Z,99965.25
2023-01-08T06:00:26.572Z,99959.78
2023-01-08T06:01:29.140Z,99959.47
2023-01-08T06:02:31.673Z,99964.63
2023-01-08T06:03:33.897Z,99956.72
2023-01-08T06:04:36.167Z,99952.56
2023-01-08T06:05:38.781Z,99957.03
2023-01-08T06:06:41.006Z,99950.84
2023-01-08T06:07:43.157Z,99957.81
2023-01-08T06:08:45.508Z,99959.41
2023-01-08T06:09:47.716Z,99951.09
2023-01-08T06:10:50.328Z,99952.09
2023-01-08T06:11:53.883Z,99934.56
2023-01-08T06:12:56.097Z,99938.25
2023-01-08T06:13:58.251Z,99930.06
2023-01-08T06:15:00.455Z,99950.22
2023-01-08T06:16:02.943Z,99943.06
2023-01-08T06:17:05.230Z,99943.06
2023-01-08T06:18:07.688Z,99944.84
2023-01-08T06:19:11.306Z,99945.72
2023-01-08T06:20:13.496Z,99949.34
2023-01-08T06:21:16.035Z,99954.47
2023-01-08T06:22:18.236Z,99948.25
2023-01-08T06:23:20.466Z,99958.25
2023-01-08T06:24:22.829Z,99947.50
2023-01-08T06:25:25.257Z,99942.19
2023-01-08T06:26:27.643Z,99948.47
2023-01-08T06:27:29.871Z,99938.72
2023-01-08T06:28:32.673Z,99940.28
2023-01-08T06:29:34.860Z,99945.72
2023-01-08T06:30:37.418Z,99940.44
2023-01-08T06:31:39.624Z,99941.31
2023-01-08T06:32:42.011Z,99945.00
2023-01-08T06:33:44.236Z,99946.69
2023-01-08T06:34:46.451Z,99949.41
2023-01-08T06:35:49.304Z,99936.91
2023-01-08T06:36:51.564Z,99946.38
2023-01-08T06:37:57.064Z,99946.16
2023-01-08T06:38:59.489Z,99947.91
2023-01-08T06:40:01.754Z,99946.97
2023-01-08T06:41:10.489Z,99941.66
2023-01-08T06:42:12.730Z,99954.22
2023-01-08T06:43:15.452Z,99946.06
2023-01-08T06:44:17.912Z,99947.09
2023-01-08T06:45:20.688Z,99948.06
2023-01-08T06:46:23.333Z,99947.09
2023-01-08T06:47:25.589Z,99947.25
2023-01-08T06:48:27.875Z,99942.03
2023-01-08T06:49:30.243Z,99940.41
2023-01-08T06:50:34.027Z,99938.56
2023-01-08T06:51:36.724Z,99936.41
2023-01-08T06:52:39.141Z,99940.28
2023-01-08T06:53:41.372Z,99930.63
2023-01-08T06:54:43.726Z,99931.47
2023-01-08T06:55:45.896Z,99925.41
2023-01-08T06:56:53.976Z,99933.06
2023-01-08T06:57:58.092Z,99931.13
2023-01-08T06:59:00.280Z,99929.91
2023-01-08T07:00:02.784Z,99928.06
2023-01-08T07:01:05.345Z,99924.56
2023-01-08T07:02:13.963Z,99922.53
2023-01-08T07:03:16.310Z,99929.88
2023-01-08T07:04:19.043Z,99928.41
2023-01-08T07:05:21.879Z,99937.00
2023-01-08T07:06:25.383Z,99933.63
2023-01-08T07:07:27.564Z,99943.13
2023-01-08T07:08:30.115Z,99944.81
2023-01-08T07:09:34.190Z,99946.69
2023-01-08T07:10:36.552Z,99944.84
2023-01-08T07:11:39.127Z,99937.69
2023-01-08T07:12:41.295Z,99941.38
2023-01-08T07:13:43.871Z,99946.06
2023-01-08T07:14:46.082Z,99948.66
2023-01-08T07:15:48.372Z,99947.03
2023-01-08T07:16:50.949Z,99943.50
2023-01-08T07:17:53.214Z,99946.06
2023-01-08T07:18:55.573Z,99939.06
2023-01-08T07:19:57.737Z,99940.78
2023-01-08T07:20:59.991Z,99944.94
2023-01-08T07:22:02.660Z,99949.06
2023-01-08T07:23:10.837Z,99950.03
2023-01-08T07:24:13.221Z,99952.56
2023-01-08T07:25:15.462Z,99953.53
2023-01-08T07:26:18.024Z,99956.81
2023-01-08T07:27:20.595Z,99952.34
2023-01-08T07:28:22.807Z,99955.84
2023-01-08T07:29:25.014Z,99954.13
2023-01-08T07:30:30.131Z,99958.53
2023-01-08T07:31:33.097Z,99955.88
2023-01-08T07:32:35.738Z,99944.59
2023-01-08T07:33:37.907Z,99946.88
2023-01-08T07:34:40.081Z,99957.25
2023-01-08T07:35:42.409Z,99945.94
2023-01-08T07:36:44.862Z,99953.84
2023-01-08T07:37:47.382Z,99946.94
2023-01-08T07:38:50.037Z,99943.34
2023-01-08T07:39:53.104Z,99941.72
2023-01-08T07:40:58.148Z,99937.97
2023-01-08T07:42:00.323Z,99943.25
2023-01-08T07:43:04.407Z,99943.88
2023-01-08T07:44:06.777Z,99946.44
2023-01-08T07:45:09.173Z,99943.78
2023-01-08T07:46:11.549Z,99945.63
2023-01-08T07:47:13.943Z,99950.81
2023-01-08T07:48:16.379Z,99950.88
2023-01-08T07:49:18.823Z,99949.75
2023-01-08T07:50:21.025Z,99948.75
2023-01-08T07:51:23.661Z,99939.56
2023-01-08T07:52:25.995Z,99941.19
2023-01-08T07:53:28.474Z,99935.81
2023-01-08T07:54:30.833Z,99938.53
2023-01-08T07:55:33.094Z,99935.28
2023-01-08T07:56:35.463Z,99933.44
2023-01-08T07:57:37.858Z,99934.34
2023-01-08T07:58:40.091Z,99939.81
2023-01-08T07:59:42.465Z,99938.06
2023-01-08T08:00:44.708Z,99933.59
2023-01-08T08:01:47.001Z,99938.91
2023-01-08T08:02:49.936Z,99951.31
2023-01-08T08:03:52.566Z,99951.59
2023-01-08T08:04:54.899Z,99943.06
2023-01-08T08:05:57.078Z,99934.13
2023-01-08T08:06:59.345Z,99935.19
2023-01-08T08:08:01.961Z,99935.06
2023-01-08T08:09:04.174Z,99930.69
2023-01-08T08:10:06.791Z,99932.66
2023-01-08T08:11:09.293Z,99931.72
2023-01-08T08:12:11.581Z,99928.38
2023-01-08T08:13:14.119Z,99931.72
2023-01-08T08:14:16.334Z,99930.69
2023-01-08T08:15:18.828Z,99939.22
2023-01-08T08:16:21.345Z,99947.28
2023-01-08T08:17:23.803Z,99944.19
2023-01-08T08:18:26.405Z,99935.13
2023-01-08T08:19:28.606Z,99936.69
2023-01-08T08:20:30.861Z,99938.53
2023-01-08T08:21:33.234Z,99937.72
2023-01-08T08:22:35.387Z,99930.84
2023-01-08T08:23:37.816Z,99933.31
2023-01-08T08:24:40.023Z,99933.41
2023-01-08T08:25:42.956Z,99937.25
2023-01-08T08:26:45.147Z,99938.13
2023-01-08T08:27:47.382Z,99929.31
2023-01-08T08:28:50.070Z,99931.13
2023-01-08T08:29:52.246Z,99934.63
2023-01-08T08:30:54.431Z,99931.97
2023-01-08T08:31:56.701Z,99931.94
2023-01-08T08:33:01.266Z,99937.31
2023-01-08T08:34:03.732Z,99932.78
2023-01-08T08:35:06.622Z,99941.72
2023-01-08T08:36:09.417Z,99933.72
2023-01-08T08:37:11.668Z,99942.59
2023-01-08T08:38:14.273Z,99935.25
2023-01-08T08:39:17.024Z,99932.69
2023-01-08T08:40:19.416Z,99934.22
2023-01-08T08:41:21.608Z,99932.59
2023-01-08T08:42:23.741Z,99927.41
2023-01-08T08:43:26.294Z,99933.72
2023-01-08T08:44:28.475Z,99930.41
2023-01-08T08:45:30.660Z,99933.81
2023-01-08T08:46:33.082Z,99934.53
2023-01-08T08:47:36.444Z,99935.69
2023-01-08T08:48:38.977Z,99934.06
2023-01-08T08:49:41.402Z,99928.53
2023-01-08T08:50:43.837Z,99928.34
2023-01-08T08:51:46.207Z,99926.31
2023-01-08T08:52:49.066Z,99926.47
2023-01-08T08:53:51.458Z,99923.84
2023-01-08T08:54:53.674Z,99920.28
2023-01-08T08:55:59.088Z,99921.00
2023-01-08T08:57:01.444Z,99920.06
2023-01-08T08:58:12.933Z,99918.31
2023-01-08T08:59:15.500Z,99922.72
2023-01-08T09:00:17.790Z,99916.53
2023-01-08T09:01:20.073Z,99910.38
2023-01-08T09:02:23.132Z,99907.94
2023-01-08T09:03:25.461Z,99922.41
2023-01-08T09:04:34.052Z,99907.19
2023-01-08T09:05:37.162Z,99904.75
2023-01-08T09:06:39.330Z,99915.41
2023-01-08T09:07:41.704Z,99917.13
2023-01-08T09:08:44.162Z,99921.16
2023-01-08T09:09:46.524Z,99923.84
2023-01-08T09:10:48.808Z,99927.03
2023-01-08T09:11:51.140Z,99924.28
2023-01-08T09:12:53.992Z,99928.13
2023-01-08T09:13:56.412Z,99925.94
2023-01-08T09:14:58.588Z,99925.91
2023-01-08T09:16:01.196Z,99919.16
2023-01-08T09:17:03.493Z,99918.94
2023-01-08T09:18:05.961Z,99913.41
2023-01-08T09:19:09.700Z,99913.25
2023-01-08T09:20:12.353Z,99898.91
2023-01-08T09:21:14.758Z,99899.50
2023-01-08T09:22:17.019Z,99904.66
2023-01-08T09:23:19.223Z,99896.00
2023-01-08T09:24:21.745Z,99892.31
2023-01-08T09:25:23.912Z,99888.28
2023-01-08T09:26:28.663Z,99885.00
2023-01-08T09:27:30.879Z,99883.94
2023-01-08T09:28:33.494Z,99891.63
2023-01-08T09:29:35.703Z,99891.81
2023-01-08T09:30:38.813Z,99892.13
2023-01-08T09:31:41.209Z,99882.34
2023-01-08T09:32:43.663Z,99881.97
2023-01-08T09:33:48.376Z,99876.78
2023-01-08T09:34:50.935Z,99882.19
2023-01-08T09:35:53.136Z,99889.06
2023-01-08T09:36:55.330Z,99890.66
2023-01-08T09:37:57.887Z,99895.78
2023-01-08T09:39:00.914Z,99882.72
2023-01-08T09:40:03.559Z,99890.13
2023-01-08T09:41:10.440Z,99893.81
2023-01-08T09:42:13.703Z,99888.06
2023-01-08T09:43:19.463Z,99892.03
2023-01-08T09:44:26.633Z,99896.25
2023-01-08T09:45:32.491Z,99886.41
2023-01-08T09:46:34.870Z,99889.63
2023-01-08T09:47:41.087Z,99890.38
2023-01-08T09:48:43.506Z,99894.88
2023-01-08T09:49:48.088Z,99890.59
2023-01-08T09:50:50.407Z,99903.28
2023-01-08T09:51:52.621Z,99892.31
2023-01-08T09:52:55.090Z,99892.81
2023-01-08T09:53:58.216Z,99895.69
2023-01-08T09:55:01.460Z,99893.94
2023-01-08T09:56:11.163Z,99885.66
2023-01-08T09:57:16.449Z,99879.69
2023-01-08T09:58:33.610Z,99880.66
2023-01-08T09:59:36.238Z,99882.44
2023-01-08T10:00:38.624Z,99885.25
2023-01-08T10:01:41.606Z,99879.53
2023-01-08T10:02:44.673Z,99879.59
2023-01-08T10:04:12.111Z,99880.25
2023-01-08T10:05:17.556Z,99869.56
2023-01-08T10:06:20.056Z,99872.97
2023-01-08T10:07:25.380Z,99871.84
2023-01-08T10:08:27.592Z,99864.63
2023-01-08T10:09:32.528Z,99875.22
2023-01-08T10:10:37.091Z,99860.66
2023-01-08T10:11:47.270Z,99870.25
2023-01-08T10:12:50.526Z,99864.13
2023-01-08T10:13:55.155Z,99859.56
2023-01-08T10:15:02.247Z,99856.47
2023-01-08T10:16:10.545Z,99851.13
2023-01-08T10:17:27.446Z,99845.50
2023-01-08T10:18:30.190Z,99848.75
2023-01-08T10:19:32.375Z,99840.44
2023-01-08T10:20:34.653Z,99849.44
2023-01-08T10:21:40.482Z,99844.31
2023-01-08T10:22:42.949Z,99842.81
2023-01-08T10:23:53.598Z,99846.72
2023-01-08T10:25:08.443Z,99843.91
2023-01-08T10:26:11.037Z,99844.84
2023-01-08T10:27:16.853Z,99847.03
2023-01-08T10:28:22.377Z,99852.25
2023-01-08T10:29:25.382Z,99846.72
2023-01-08T10:30:37.235Z,99849.22
2023-01-08T10:31:47.517Z,99850.56
2023-01-08T10:32:54.512Z,99842.66
2023-01-08T10:33:57.361Z,99848.59
2023-01-08T10:35:05.559Z,99839.69
2023-01-08T10:36:10.540Z,99841.94
2023-01-08T10:37:42.607Z,99842.72
2023-01-08T10:39:02.345Z,99848.06
2023-01-08T10:40:26.669Z,99846.56
2023-01-08T10:41:29.835Z,99849.94
2023-01-08T10:42:35.216Z,99844.13
2023-01-08T10:43:54.380Z,99846.63
2023-01-08T10:45:01.608Z,99849.31
2023-01-08T10:46:07.642Z,99834.50
2023-01-08T10:47:18.353Z,99835.78
2023-01-08T10:48:20.815Z,99834.59
2023-01-08T10:49:42.047Z,99835.25
2023-01-08T10:50:44.268Z,99840.50
2023-01-08T10:51:51.745Z,99832.97
2023-01-08T10:52:56.796Z,99834.72
2023-01-08T10:54:02.171Z,99824.16
2023-01-08T10:55:25.010Z,99829.81
2023-01-08T10:56:40.235Z,99835.66
2023-01-08T10:57:52.321Z,99827.78
2023-01-08T10:58:55.817Z,99828.88
2023-01-08T10:59:58.381Z,99829.25
2023-01-08T11:01:12.940Z,99826.34
2023-01-08T11:02:38.319Z,99836.25
2023-01-08T11:03:42.249Z,99834.69
2023-01-08T11:04:51.568Z,99837.97
2023-01-08T11:05:53.906Z,99836.19
2023-01-08T11:06:59.968Z,99839.56
2023-01-08T11:08:07.095Z,99839.66
2023-01-08T11:09:23.175Z,99834.28
2023-01-08T11:10:27.422Z,99824.56
2023-01-08T11:11:37.745Z,99824.25
2023-01-08T11:12:41.737Z,99817.94
2023-01-08T11:14:22.673Z,99820.69
2023-01-08T11:15:39.550Z,99818.13
2023-01-08T11:16:42.899Z,99819.50
2023-01-08T11:17:46.249Z,99820.16
2023-01-08T11:18:50.847Z,99813.56
2023-01-08T11:19:55.766Z,99814.88
2023-01-08T11:21:10.821Z,99823.38
2023-01-08T11:22:33.878Z,99821.81
2023-01-08T11:23:36.674Z,99822.09
2023-01-08T11:24:40.305Z,99808.44
2023-01-08T11:25:51.880Z,99805.03
2023-01-08T11:27:06.240Z,99798.59
2023-01-08T11:28:15.964Z,99808.44
2023-01-08T11:29:24.578Z,99810.09
2023-01-08T11:30:32.564Z,99811.97
2023-01-08T11:31:52.941Z,99797.41
2023-01-08T11:33:04.631Z,99799.44
2023-01-08T11:34:22.161Z,99790.88
2023-01-08T11:35:38.365Z,99790.28
2023-01-08T11:36:52.592Z,99785.88
2023-01-08T11:38:00.056Z,99791.00
2023-01-08T11:39:02.693Z,99789.25
2023-01-08T11:40:14.832Z,99792.25
2023-01-08T11:41:25.876Z,99795.50
2023-01-08T11:42:47.818Z,99780.69
2023-01-08T11:44:14.926Z,99789.41
2023-01-08T11:45:34.062Z,99783.66
2023-01-08T11:46:45.673Z,99781.47
2023-01-08T11:48:17.964Z,99781.38
2023-01-08T11:49:47.594Z,99778.72
2023-01-08T11:51:05.030Z,99779.47
2023-01-08T11:52:12.905Z,99780.25
2023-01-08T11:53:23.543Z,99782.13
2023-01-08T11:54:49.455Z,99791.09
2023-01-08T11:56:09.453Z,99791.94
2023-01-08T11:57:20.548Z,99796.28
2023-01-08T11:58:32.242Z,99798.50
2023-01-08T12:00:02.633Z,99808.66
2023-01-08T12:01:07.721Z,99805.28
2023-01-08T12:02:24.949Z,99807.41
2023-01-08T12:04:05.880Z,99805.75
2023-01-08T12:05:26.229Z,99805.91
2023-01-08T12:07:03.413Z,99806.22
2023-01-08T12:08:27.522Z,99795.84
2023-01-08T12:09:42.243Z,99799.16
2023-01-08T12:11:00.133Z,99797.19
2023-01-08T12:12:27.047Z,99787.66
2023-01-08T12:13:50.351Z,99790.13
2023-01-08T12:15:04.732Z,99785.00
2023-01-08T12:16:24.761Z,99782.16
2023-01-08T12:17:44.115Z,99763.41
2023-01-08T12:19:03.471Z,99778.09
2023-01-08T12:20:27.388Z,99767.53
2023-01-08T12:21:39.086Z,99764.72
2023-01-08T12:22:47.295Z,99761.94
2023-01-08T12:24:32.288Z,99758.75
2023-01-08T12:25:48.663Z,99748.66
2023-01-08T12:27:16.134Z,99754.44
2023-01-08T12:28:39.744Z,99757.59
2023-01-08T12:30:09.508Z,99755.06
2023-01-08T12:31:25.650Z,99761.06
2023-01-08T12:32:36.293Z,99745.59
2023-01-08T12:33:44.713Z,99753.13
2023-01-08T12:34:46.822Z,99754.28
2023-01-08T12:35:54.327Z,99754.34
2023-01-08T12:37:06.709Z,99745.69
2023-01-08T12:38:19.046Z,99743.22
2023-01-08T12:39:28.087Z,99734.44
2023-01-08T12:40:36.165Z,99732.25
2023-01-08T12:41:41.058Z,99726.41
2023-01-08T12:42:50.286Z,99717.59
2023-01-08T12:44:00.615Z,99718.03